Time;durP1;ratioP1;P1;durP2;ratioP2;P2;SDS_P1;SDS_P2;PMS_P1;PMS_P2;Temp;Humidity;BMP_temperature;BMP_pressure;BME280_temperature;BME280_humidity;BME280_pressure;Samples;Min_cycle;Max_cycle;Signal;HPM_P1;HPM_P2
2021/08/18 00:01:59;;;;;;;2.35;1.50;;;24.70;49.30;;;;;;5047483;28;20033;-70
2021/08/18 00:04:25;;;;;;;2.55;1.73;;;24.70;49.20;;;;;;5046159;28;20074;-65
2021/08/18 00:06:50;;;;;;;2.63;1.70;;;24.60;49.20;;;;;;5047858;28;20070;-66
2021/08/18 00:09:16;;;;;;;2.28;1.50;;;24.70;49.30;;;;;;5047211;28;20124;-68
2021/08/18 00:11:42;;;;;;;2.55;1.40;;;24.70;49.20;;;;;;5033764;28;20057;-67
2021/08/18 00:14:08;;;;;;;3.13;1.60;;;24.70;49.30;;;;;;5044958;28;20112;-65
2021/08/18 00:16:34;;;;;;;2.35;1.52;;;24.60;49.20;;;;;;5046111;28;20043;-69
2021/08/18 00:19:00;;;;;;;2.65;1.70;;;24.70;49.30;;;;;;5046613;28;20029;-66
2021/08/18 00:21:26;;;;;;;3.05;1.70;;;24.70;49.30;;;;;;5045888;28;20025;-66
2021/08/18 00:23:52;;;;;;;2.40;1.70;;;24.70;49.30;;;;;;5040037;28;20071;-68
2021/08/18 00:26:18;;;;;;;2.03;1.40;;;24.60;49.20;;;;;;5042925;28;20031;-65
2021/08/18 00:28:44;;;;;;;2.67;1.50;;;24.60;49.30;;;;;;5047035;28;20033;-65
2021/08/18 00:31:13;;;;;;;2.65;1.70;;;24.60;49.30;;;;;;5042260;28;20037;-65
2021/08/18 00:33:39;;;;;;;2.40;1.58;;;24.60;49.80;;;;;;5049269;28;20025;-65
2021/08/18 00:36:05;;;;;;;2.78;1.63;;;24.60;49.20;;;;;;5051003;28;20025;-67
2021/08/18 00:38:31;;;;;;;2.05;1.40;;;24.60;49.20;;;;;;5046957;28;20112;-65
2021/08/18 00:40:57;;;;;;;3.65;1.60;;;24.60;49.30;;;;;;5046757;28;20044;-64
2021/08/18 00:43:23;;;;;;;2.45;1.55;;;24.60;49.30;;;;;;5046246;28;20048;-66
2021/08/18 00:45:50;;;;;;;2.63;1.65;;;24.60;49.30;;;;;;5047001;28;20017;-68
2021/08/18 00:48:15;;;;;;;2.08;1.20;;;24.60;49.30;;;;;;5048573;28;20109;-66
2021/08/18 00:50:41;;;;;;;3.20;1.58;;;24.60;49.30;;;;;;5048621;28;20170;-66
2021/08/18 00:53:06;;;;;;;2.00;1.48;;;24.60;49.30;;;;;;5044221;28;20111;-68
2021/08/18 00:55:32;;;;;;;2.13;1.58;;;24.60;49.30;;;;;;5031459;28;20032;-66
2021/08/18 00:57:58;;;;;;;2.50;1.60;;;24.50;49.20;;;;;;5045080;28;20056;-63
2021/08/18 01:00:26;;;;;;;2.25;1.50;;;24.60;49.30;;;;;;5050990;28;20033;-66
2021/08/18 01:02:52;;;;;;;2.75;1.65;;;24.60;49.30;;;;;;5049805;28;20049;-65
2021/08/18 01:05:21;;;;;;;2.47;1.50;;;24.60;49.30;;;;;;5049904;28;20110;-66
2021/08/18 01:07:47;;;;;;;2.22;1.40;;;24.60;49.30;;;;;;5050941;28;20032;-66
2021/08/18 01:10:15;;;;;;;2.22;1.40;;;24.60;49.30;;;;;;5049361;28;20033;-66
2021/08/18 01:12:41;;;;;;;2.15;1.40;;;24.60;49.30;;;;;;5046783;28;20059;-63
2021/08/18 01:15:13;;;;;;;2.20;1.40;;;24.60;49.40;;;;;;5045524;28;20073;-64
2021/08/18 01:17:41;;;;;;;2.20;1.25;;;24.50;49.30;;;;;;5048596;28;20021;-67
2021/08/18 01:20:12;;;;;;;2.10;1.53;;;24.50;49.40;;;;;;5051176;28;20028;-66
2021/08/18 01:22:38;;;;;;;2.00;1.50;;;24.50;49.30;;;;;;5049003;28;20374;-66
2021/08/18 01:25:05;;;;;;;2.40;1.60;;;24.50;49.30;;;;;;5046238;28;20404;-66
2021/08/18 01:27:31;;;;;;;2.35;1.50;;;24.50;49.30;;;;;;5050047;28;20017;-66
2021/08/18 01:29:57;;;;;;;1.80;1.30;;;24.50;49.30;;;;;;5051304;28;20880;-68
2021/08/18 01:32:22;;;;;;;2.38;1.63;;;24.50;49.30;;;;;;5047990;28;20029;-66
2021/08/18 01:34:48;;;;;;;2.13;1.38;;;24.50;49.40;;;;;;5044313;28;20036;-66
2021/08/18 01:37:14;;;;;;;2.40;1.50;;;24.50;49.40;;;;;;5050566;28;20439;-66
2021/08/18 01:39:39;;;;;;;2.67;1.80;;;24.50;49.40;;;;;;5049519;28;20082;-64
2021/08/18 01:42:06;;;;;;;2.28;1.40;;;24.50;49.40;;;;;;5037919;28;20064;-67
2021/08/18 01:44:32;;;;;;;2.03;1.35;;;24.50;49.40;;;;;;5049213;28;20061;-68
2021/08/18 01:46:59;;;;;;;2.20;1.55;;;24.50;49.40;;;;;;5049904;28;20112;-66
2021/08/18 01:49:28;;;;;;;2.08;1.20;;;24.50;49.40;;;;;;5047031;28;20487;-66
2021/08/18 01:51:55;;;;;;;2.10;1.40;;;24.50;49.40;;;;;;5043691;28;20480;-68
2021/08/18 01:54:20;;;;;;;2.10;1.42;;;24.40;49.40;;;;;;5049815;28;20029;-66
2021/08/18 01:56:46;;;;;;;1.98;1.50;;;24.40;49.40;;;;;;5045343;28;20086;-67
2021/08/18 01:59:12;;;;;;;2.50;1.60;;;24.40;49.40;;;;;;5029769;28;20033;-65
2021/08/18 02:01:37;;;;;;;2.15;1.40;;;24.40;49.40;;;;;;5040031;28;20041;-66
2021/08/18 02:04:03;;;;;;;1.85;1.45;;;24.40;49.40;;;;;;5048362;28;20025;-69
2021/08/18 02:06:31;;;;;;;2.00;1.40;;;24.40;49.40;;;;;;5045982;28;20079;-62
2021/08/18 02:08:57;;;;;;;2.13;1.40;;;24.40;49.40;;;;;;5050236;28;20476;-64
2021/08/18 02:11:23;;;;;;;2.50;1.30;;;24.40;49.40;;;;;;5036338;28;20112;-66
2021/08/18 02:13:49;;;;;;;2.83;1.50;;;24.40;49.40;;;;;;5048484;28;20446;-66
2021/08/18 02:16:14;;;;;;;2.13;1.40;;;24.40;49.40;;;;;;5049621;28;20028;-68
2021/08/18 02:18:40;;;;;;;2.00;1.35;;;24.40;49.40;;;;;;5049005;28;20094;-66
2021/08/18 02:21:05;;;;;;;1.95;1.30;;;24.40;49.40;;;;;;5046002;28;20120;-66
2021/08/18 02:23:31;;;;;;;2.08;1.48;;;24.40;49.40;;;;;;5045438;28;20080;-66
2021/08/18 02:25:56;;;;;;;2.10;1.48;;;24.40;49.40;;;;;;5049520;28;20029;-63
2021/08/18 02:28:22;;;;;;;2.17;1.40;;;24.40;49.40;;;;;;5049015;28;20053;-66
2021/08/18 02:30:48;;;;;;;2.30;1.40;;;24.40;49.50;;;;;;5049351;28;20021;-64
2021/08/18 02:33:14;;;;;;;2.58;1.50;;;24.40;49.50;;;;;;5046011;28;20040;-66
2021/08/18 02:35:40;;;;;;;2.22;1.60;;;24.30;49.50;;;;;;5048332;28;20032;-66
2021/08/18 02:38:06;;;;;;;2.03;1.30;;;24.30;49.40;;;;;;5049228;28;20514;-66
2021/08/18 02:40:33;;;;;;;2.45;1.40;;;24.30;49.40;;;;;;5048036;28;20581;-68
2021/08/18 02:43:00;;;;;;;2.30;1.40;;;24.30;49.50;;;;;;5048508;28;20512;-66
2021/08/18 02:45:28;;;;;;;2.13;1.50;;;24.30;49.40;;;;;;5049067;28;20083;-66
2021/08/18 02:47:54;;;;;;;2.05;1.42;;;24.30;49.40;;;;;;5048781;28;20025;-65
2021/08/18 02:50:23;;;;;;;2.42;1.52;;;24.30;49.50;;;;;;5048542;28;20055;-63
2021/08/18 02:52:49;;;;;;;2.10;1.40;;;24.30;49.50;;;;;;5047622;28;20098;-66
2021/08/18 02:55:14;;;;;;;2.75;1.70;;;24.30;49.50;;;;;;5047058;28;20830;-64
2021/08/18 02:57:41;;;;;;;2.38;1.40;;;24.30;49.50;;;;;;5048856;28;20024;-69
2021/08/18 03:00:08;;;;;;;2.00;1.30;;;24.30;49.50;;;;;;5069162;28;20353;-66
2021/08/18 03:02:34;;;;;;;1.90;1.33;;;24.30;49.50;;;;;;5068084;28;20032;-65
2021/08/18 03:05:00;;;;;;;1.92;1.33;;;24.30;49.50;;;;;;5045423;28;20021;-68
2021/08/18 03:07:26;;;;;;;1.67;1.23;;;24.30;49.50;;;;;;5048699;28;20449;-66
2021/08/18 03:09:52;;;;;;;1.85;1.20;;;24.30;49.50;;;;;;5045825;28;20032;-68
2021/08/18 03:12:18;;;;;;;1.83;1.30;;;24.30;49.50;;;;;;5032071;28;20131;-65
2021/08/18 03:14:43;;;;;;;2.40;1.30;;;24.30;49.60;;;;;;5062404;28;20035;-68
2021/08/18 03:17:10;;;;;;;2.08;1.30;;;24.30;49.50;;;;;;5052112;28;20040;-68
2021/08/18 03:19:35;;;;;;;2.25;1.50;;;24.30;49.50;;;;;;5038607;28;20096;-69
2021/08/18 03:22:01;;;;;;;2.00;1.45;;;24.30;49.60;;;;;;5047928;28;20173;-68
2021/08/18 03:24:26;;;;;;;2.28;1.58;;;24.30;49.60;;;;;;5048634;28;20139;-66
2021/08/18 03:26:52;;;;;;;2.10;1.40;;;24.30;49.60;;;;;;5047128;28;20601;-68
2021/08/18 03:29:18;;;;;;;2.20;1.42;;;24.30;49.60;;;;;;5048411;28;20039;-68
2021/08/18 03:31:43;;;;;;;1.90;1.30;;;24.30;49.60;;;;;;5048004;28;20025;-66
2021/08/18 03:34:09;;;;;;;2.30;1.33;;;24.30;49.60;;;;;;5046707;28;20029;-67
2021/08/18 03:36:34;;;;;;;2.80;1.50;;;24.30;49.60;;;;;;5047138;28;20346;-69
2021/08/18 03:39:00;;;;;;;2.13;1.23;;;24.30;49.60;;;;;;5046052;28;20075;-68
2021/08/18 03:41:26;;;;;;;1.77;1.30;;;24.30;49.60;;;;;;5036477;28;20017;-68
2021/08/18 03:43:51;;;;;;;2.20;1.40;;;24.30;49.60;;;;;;5039880;28;20110;-63
2021/08/18 03:46:17;;;;;;;1.70;1.15;;;24.20;49.60;;;;;;5046287;28;20025;-64
2021/08/18 03:48:43;;;;;;;2.25;1.40;;;24.20;49.60;;;;;;5047223;28;20033;-63
2021/08/18 03:51:09;;;;;;;1.85;1.23;;;24.20;49.60;;;;;;5028138;28;20064;-67
2021/08/18 03:53:35;;;;;;;2.65;1.35;;;24.20;49.60;;;;;;5026515;28;20121;-66
2021/08/18 03:56:00;;;;;;;2.25;1.50;;;24.20;49.60;;;;;;5030109;28;20141;-66
2021/08/18 03:58:26;;;;;;;1.63;1.17;;;24.20;49.60;;;;;;5046402;28;20032;-66
2021/08/18 04:00:52;;;;;;;1.85;1.33;;;24.20;49.60;;;;;;5047794;28;20029;-66
2021/08/18 04:03:18;;;;;;;1.80;1.30;;;24.20;49.60;;;;;;5043068;28;20045;-66
2021/08/18 04:05:44;;;;;;;2.10;1.40;;;24.20;49.60;;;;;;5026733;28;20033;-67
2021/08/18 04:08:11;;;;;;;2.40;1.27;;;24.20;49.60;;;;;;5047760;28;20081;-64
2021/08/18 04:10:38;;;;;;;2.10;1.27;;;24.20;49.60;;;;;;5040408;28;20020;-66
2021/08/18 04:13:04;;;;;;;2.33;1.50;;;24.20;49.70;;;;;;5047537;28;20068;-63
2021/08/18 04:15:38;;;;;;;2.20;1.30;;;24.20;49.70;;;;;;5047330;28;20602;-67
2021/08/18 04:18:04;;;;;;;1.48;1.10;;;24.20;49.70;;;;;;5046697;28;20059;-66
2021/08/18 04:20:30;;;;;;;2.05;1.35;;;24.20;49.60;;;;;;5045802;28;20025;-64
2021/08/18 04:22:55;;;;;;;1.90;1.30;;;24.20;49.70;;;;;;5054077;28;20392;-67
2021/08/18 04:25:21;;;;;;;2.10;1.30;;;24.20;49.70;;;;;;5036766;28;20048;-67
2021/08/18 04:27:48;;;;;;;1.75;1.30;;;24.20;49.70;;;;;;5046484;28;20036;-67
2021/08/18 04:30:15;;;;;;;2.72;1.50;;;24.10;49.70;;;;;;5046427;28;20055;-67
2021/08/18 04:32:41;;;;;;;1.98;1.40;;;24.20;49.70;;;;;;5045412;28;20029;-68
2021/08/18 04:35:08;;;;;;;1.75;1.38;;;24.10;49.70;;;;;;5049026;28;20044;-67
2021/08/18 04:37:37;;;;;;;2.03;1.23;;;24.10;49.60;;;;;;5047518;28;20025;-67
2021/08/18 04:40:09;;;;;;;1.98;1.35;;;24.20;49.70;;;;;;5046815;28;20021;-66
2021/08/18 04:42:39;;;;;;;1.83;1.30;;;24.10;49.70;;;;;;5046469;28;20565;-68
2021/08/18 04:45:07;;;;;;;2.00;1.30;;;24.10;49.70;;;;;;5051376;28;20024;-68
2021/08/18 04:47:32;;;;;;;2.05;1.55;;;24.10;49.70;;;;;;5046860;28;20040;-67
2021/08/18 04:49:58;;;;;;;1.35;1.05;;;24.10;49.70;;;;;;5045761;28;20021;-67
2021/08/18 04:52:24;;;;;;;2.30;1.33;;;24.10;49.70;;;;;;5048621;28;20066;-66
2021/08/18 04:54:50;;;;;;;2.03;1.42;;;24.10;49.70;;;;;;5048148;28;20026;-62
2021/08/18 04:57:15;;;;;;;2.08;1.40;;;24.10;49.80;;;;;;5049016;28;20029;-66
2021/08/18 04:59:41;;;;;;;2.10;1.30;;;24.10;49.80;;;;;;5049889;28;20211;-64
2021/08/18 05:02:06;;;;;;;1.73;1.30;;;24.10;49.80;;;;;;5054370;28;20464;-66
2021/08/18 05:04:32;;;;;;;2.13;1.40;;;24.10;49.80;;;;;;5061880;28;20127;-65
2021/08/18 05:06:57;;;;;;;2.28;1.48;;;24.10;50.30;;;;;;5048744;28;20048;-65
2021/08/18 05:09:23;;;;;;;2.40;1.52;;;24.10;49.80;;;;;;5047720;28;20029;-67
2021/08/18 05:11:49;;;;;;;1.98;1.20;;;24.10;49.80;;;;;;5041831;28;20432;-62
2021/08/18 05:14:14;;;;;;;1.80;1.38;;;24.10;49.80;;;;;;5050722;28;20561;-67
2021/08/18 05:16:40;;;;;;;2.30;1.60;;;24.10;49.80;;;;;;5047269;28;20532;-66
2021/08/18 05:19:06;;;;;;;2.33;1.33;;;24.10;49.80;;;;;;5028443;28;20198;-64
2021/08/18 05:21:31;;;;;;;2.22;1.45;;;24.10;49.80;;;;;;5043175;28;20503;-65
2021/08/18 05:23:57;;;;;;;2.55;1.50;;;24.10;49.80;;;;;;5048421;28;20418;-65
2021/08/18 05:26:22;;;;;;;2.17;1.48;;;24.10;49.80;;;;;;5049962;28;20017;-66
2021/08/18 05:28:48;;;;;;;2.42;1.50;;;24.10;49.80;;;;;;5047744;28;20025;-63
2021/08/18 05:31:14;;;;;;;2.15;1.45;;;24.10;49.80;;;;;;5049484;28;20021;-66
2021/08/18 05:33:40;;;;;;;2.20;1.40;;;24.10;49.80;;;;;;5047956;28;20519;-66
2021/08/18 05:36:07;;;;;;;2.00;1.40;;;24.10;49.80;;;;;;5045013;28;20135;-63
2021/08/18 05:38:32;;;;;;;2.50;1.70;;;24.10;49.80;;;;;;5047525;28;20037;-67
2021/08/18 05:40:58;;;;;;;2.33;1.60;;;24.00;49.80;;;;;;5044866;28;20040;-63
2021/08/18 05:43:24;;;;;;;2.30;1.60;;;24.00;49.80;;;;;;5046365;28;20041;-64
2021/08/18 05:45:50;;;;;;;2.35;1.40;;;24.10;49.80;;;;;;5048425;28;20496;-65
2021/08/18 05:48:15;;;;;;;2.60;1.73;;;24.00;49.80;;;;;;5047047;28;20381;-66
2021/08/18 05:50:41;;;;;;;2.58;1.95;;;24.00;49.80;;;;;;5044109;28;20432;-65
2021/08/18 05:53:15;;;;;;;2.65;1.80;;;24.00;49.80;;;;;;5050051;28;20056;-63
2021/08/18 05:55:41;;;;;;;2.45;1.65;;;24.00;49.80;;;;;;5047238;28;20029;-65
2021/08/18 05:58:07;;;;;;;2.10;1.50;;;24.10;49.80;;;;;;5047280;28;20033;-65
2021/08/18 06:00:32;;;;;;;2.20;1.58;;;24.00;49.80;;;;;;5045700;28;20047;-65
2021/08/18 06:02:58;;;;;;;2.53;1.70;;;24.10;49.80;;;;;;5044146;28;20028;-66
2021/08/18 06:05:23;;;;;;;2.50;1.70;;;24.00;49.80;;;;;;5044646;28;20097;-66
2021/08/18 06:07:49;;;;;;;3.55;1.77;;;24.00;49.80;;;;;;5047156;28;20029;-65
2021/08/18 06:10:15;;;;;;;2.60;1.63;;;24.00;49.80;;;;;;5043278;28;20111;-64
2021/08/18 06:12:40;;;;;;;2.50;1.60;;;24.00;49.80;;;;;;5042612;28;20048;-65
2021/08/18 06:15:07;;;;;;;2.90;1.83;;;24.00;49.80;;;;;;5044650;28;20044;-63
2021/08/18 06:17:32;;;;;;;2.70;1.70;;;24.00;49.80;;;;;;5045740;28;20040;-66
2021/08/18 06:19:58;;;;;;;2.53;1.80;;;24.00;49.90;;;;;;5039928;28;20430;-65
2021/08/18 06:22:24;;;;;;;2.88;1.92;;;24.00;49.90;;;;;;5049134;28;20040;-66
2021/08/18 06:24:51;;;;;;;3.05;2.00;;;24.00;49.90;;;;;;5043071;28;20025;-65
2021/08/18 06:27:17;;;;;;;2.85;2.03;;;24.00;49.90;;;;;;5045053;28;20545;-65
2021/08/18 06:29:43;;;;;;;2.60;1.90;;;24.00;49.90;;;;;;5049749;28;20028;-66
2021/08/18 06:32:09;;;;;;;3.90;1.90;;;24.00;49.90;;;;;;5044545;28;20025;-65
2021/08/18 06:34:35;;;;;;;2.60;1.90;;;24.00;49.90;;;;;;5043459;28;20127;-65
2021/08/18 06:37:02;;;;;;;2.97;2.00;;;24.00;49.90;;;;;;5046753;28;20054;-66
2021/08/18 06:39:32;;;;;;;2.80;2.00;;;24.00;49.90;;;;;;5047744;28;20032;-64
2021/08/18 06:42:01;;;;;;;3.03;2.00;;;24.00;49.90;;;;;;5044513;28;20124;-66
2021/08/18 06:44:27;;;;;;;2.92;1.88;;;24.00;49.90;;;;;;5045525;28;20143;-61
2021/08/18 06:46:53;;;;;;;2.72;1.90;;;24.00;50.00;;;;;;5048860;28;20032;-65
2021/08/18 06:49:18;;;;;;;2.88;2.03;;;24.00;49.90;;;;;;5037236;28;20055;-65
2021/08/18 06:51:44;;;;;;;3.20;1.92;;;24.00;50.00;;;;;;5044837;28;20092;-65
2021/08/18 06:54:10;;;;;;;2.78;1.80;;;23.90;49.90;;;;;;5043842;28;20120;-62
2021/08/18 06:56:36;;;;;;;2.85;1.77;;;24.00;50.00;;;;;;5044101;28;20116;-65
2021/08/18 06:59:01;;;;;;;2.63;1.90;;;23.90;49.90;;;;;;5042986;28;20052;-65
2021/08/18 07:01:27;;;;;;;3.00;1.90;;;24.00;50.00;;;;;;5044759;28;20577;-63
2021/08/18 07:03:53;;;;;;;3.15;1.90;;;23.90;49.90;;;;;;5043040;28;20089;-65
2021/08/18 07:06:18;;;;;;;2.78;1.95;;;23.90;50.00;;;;;;5046900;28;20033;-64
2021/08/18 07:08:44;;;;;;;2.45;1.80;;;23.90;49.90;;;;;;5043763;28;20384;-65
2021/08/18 07:11:10;;;;;;;3.25;2.13;;;23.90;50.00;;;;;;5042858;28;20040;-65
2021/08/18 07:13:36;;;;;;;3.17;1.92;;;23.90;50.00;;;;;;5045306;28;20125;-62
2021/08/18 07:16:02;;;;;;;2.70;1.98;;;23.90;50.00;;;;;;5043488;28;20120;-65
2021/08/18 07:18:27;;;;;;;3.05;2.10;;;23.90;49.90;;;;;;5042990;28;20021;-65
2021/08/18 07:20:53;;;;;;;2.72;1.80;;;23.90;49.90;;;;;;5042402;28;20017;-65
2021/08/18 07:23:18;;;;;;;2.90;1.83;;;23.90;49.90;;;;;;5047456;28;20056;-66
2021/08/18 07:25:44;;;;;;;3.25;1.90;;;23.90;49.90;;;;;;5042903;28;20021;-61
2021/08/18 07:28:10;;;;;;;2.90;2.10;;;23.90;49.90;;;;;;5043367;28;20468;-65
2021/08/18 07:30:35;;;;;;;3.50;2.08;;;23.90;49.90;;;;;;5044708;28;20021;-60
2021/08/18 07:33:01;;;;;;;3.20;2.17;;;23.90;50.00;;;;;;5047457;28;20037;-61
2021/08/18 07:35:27;;;;;;;3.17;1.88;;;23.90;50.00;;;;;;5043319;28;20032;-65
2021/08/18 07:37:52;;;;;;;3.10;2.10;;;23.90;49.90;;;;;;5044859;28;20382;-66
2021/08/18 07:40:18;;;;;;;2.97;2.00;;;23.90;50.00;;;;;;5042453;28;20092;-64
2021/08/18 07:42:44;;;;;;;2.70;1.92;;;23.90;50.00;;;;;;5036504;28;20144;-64
2021/08/18 07:45:10;;;;;;;3.10;2.10;;;23.90;50.00;;;;;;5042559;28;20408;-65
2021/08/18 07:47:36;;;;;;;3.38;2.08;;;23.90;50.00;;;;;;5043961;28;20467;-65
2021/08/18 07:50:03;;;;;;;2.80;1.98;;;23.90;50.00;;;;;;5044356;28;20047;-63
2021/08/18 07:52:29;;;;;;;2.67;1.83;;;23.90;50.00;;;;;;5047772;28;20106;-65
2021/08/18 07:54:54;;;;;;;3.20;2.00;;;23.90;50.00;;;;;;5048022;28;20055;-65
2021/08/18 07:57:20;;;;;;;3.33;2.13;;;23.90;50.00;;;;;;5045092;28;20100;-65
2021/08/18 07:59:46;;;;;;;2.92;1.95;;;23.90;50.00;;;;;;5043692;28;20029;-65
2021/08/18 08:02:11;;;;;;;2.65;1.92;;;23.90;50.00;;;;;;5044384;28;20117;-63
2021/08/18 08:04:37;;;;;;;2.70;1.83;;;23.90;50.00;;;;;;5060113;28;20029;-65
2021/08/18 08:07:03;;;;;;;3.00;2.15;;;23.90;50.00;;;;;;5042246;28;20436;-65
2021/08/18 08:09:29;;;;;;;3.10;2.22;;;23.90;50.00;;;;;;5043331;28;20642;-65
2021/08/18 08:11:54;;;;;;;2.50;1.85;;;23.90;50.00;;;;;;5043309;28;20049;-65
2021/08/18 08:14:20;;;;;;;3.03;2.08;;;23.90;50.00;;;;;;5044184;28;20122;-64
2021/08/18 08:16:46;;;;;;;3.10;2.13;;;23.90;50.00;;;;;;5040709;28;20393;-65
2021/08/18 08:19:11;;;;;;;2.67;1.80;;;23.90;50.00;;;;;;5040640;28;20041;-61
2021/08/18 08:21:37;;;;;;;2.97;2.05;;;23.90;50.00;;;;;;5044278;28;20017;-60
2021/08/18 08:24:03;;;;;;;3.53;2.10;;;23.90;50.10;;;;;;5042979;28;20114;-65
2021/08/18 08:26:29;;;;;;;3.22;2.22;;;23.90;50.00;;;;;;5044176;28;20029;-61
2021/08/18 08:28:55;;;;;;;3.00;2.10;;;23.80;50.00;;;;;;5046293;28;20029;-65
2021/08/18 08:31:20;;;;;;;3.08;2.10;;;23.80;50.00;;;;;;5044417;28;20035;-65
2021/08/18 08:33:46;;;;;;;3.10;2.10;;;23.90;50.60;;;;;;5045940;28;20017;-61
2021/08/18 08:36:12;;;;;;;2.78;1.95;;;23.80;50.00;;;;;;5046585;28;20538;-64
2021/08/18 08:38:38;;;;;;;2.70;1.90;;;23.90;50.10;;;;;;5040089;28;20098;-65
2021/08/18 08:41:06;;;;;;;3.20;2.20;;;23.90;50.10;;;;;;5042039;28;20025;-65
2021/08/18 08:43:32;;;;;;;3.20;2.10;;;23.80;50.10;;;;;;5045201;28;20041;-65
2021/08/18 08:45:58;;;;;;;3.00;2.10;;;23.90;50.10;;;;;;5044024;28;20500;-66
2021/08/18 08:48:24;;;;;;;3.13;2.20;;;23.90;50.20;;;;;;5042119;28;20024;-66
2021/08/18 08:50:50;;;;;;;3.05;2.20;;;23.80;50.20;;;;;;5043177;28;20024;-65
2021/08/18 08:53:16;;;;;;;2.95;2.10;;;23.90;50.30;;;;;;5048123;28;20611;-65
2021/08/18 08:55:42;;;;;;;3.35;2.30;;;23.80;50.30;;;;;;5041895;28;20044;-66
2021/08/18 08:58:08;;;;;;;2.80;2.00;;;23.90;50.30;;;;;;5042233;28;20033;-65
2021/08/18 09:00:34;;;;;;;3.70;2.35;;;23.90;50.40;;;;;;5042093;28;20039;-66
2021/08/18 09:03:11;;;;;;;3.33;2.30;;;23.80;50.30;;;;;;5041506;28;20036;-63
2021/08/18 09:05:37;;;;;;;3.45;2.50;;;23.80;50.40;;;;;;5041883;28;20083;-66
2021/08/18 09:08:04;;;;;;;3.60;2.47;;;23.80;50.40;;;;;;5037249;28;20782;-65
2021/08/18 09:10:29;;;;;;;3.28;2.35;;;23.80;50.40;;;;;;5043557;28;20529;-65
2021/08/18 09:13:14;;;;;;;3.35;2.50;;;23.80;50.40;;;;;;5043231;28;20037;-65
2021/08/18 09:15:40;;;;;;;4.63;2.38;;;23.80;50.50;;;;;;5043927;28;20025;-62
2021/08/18 09:18:05;;;;;;;4.05;2.40;;;23.80;50.50;;;;;;5041216;28;20032;-66
2021/08/18 09:20:32;;;;;;;3.88;2.70;;;23.80;50.40;;;;;;5043934;28;20025;-63
2021/08/18 09:23:00;;;;;;;3.92;2.53;;;23.90;50.50;;;;;;5048602;28;20551;-66
2021/08/18 09:25:30;;;;;;;3.53;2.38;;;23.90;50.50;;;;;;5045154;28;20033;-65
2021/08/18 09:28:04;;;;;;;4.30;2.50;;;23.90;50.50;;;;;;5062509;28;20079;-66
2021/08/18 09:30:38;;;;;;;3.40;2.45;;;23.90;50.50;;;;;;5042526;28;20032;-66
2021/08/18 09:33:09;;;;;;;3.42;2.40;;;23.80;50.50;;;;;;5043102;28;20121;-66
2021/08/18 09:35:35;;;;;;;3.03;2.20;;;23.80;50.50;;;;;;5045329;28;20032;-62
2021/08/18 09:38:20;;;;;;;4.38;2.28;;;23.90;50.50;;;;;;5045642;28;20043;-67
2021/08/18 09:40:49;;;;;;;3.28;2.33;;;23.90;50.60;;;;;;5031478;28;20787;-65
2021/08/18 09:43:24;;;;;;;3.95;2.50;;;23.90;50.50;;;;;;5042444;28;20040;-62
2021/08/18 09:46:06;;;;;;;3.60;2.75;;;23.90;50.60;;;;;;5047792;28;20021;-65
2021/08/18 09:48:37;;;;;;;3.28;2.42;;;23.80;50.60;;;;;;5036476;28;20483;-64
2021/08/18 09:51:04;;;;;;;3.22;2.35;;;23.90;50.60;;;;;;5042612;28;20037;-66
2021/08/18 09:53:39;;;;;;;3.70;2.50;;;23.90;50.60;;;;;;5048641;28;20108;-65
2021/08/18 09:56:06;;;;;;;3.00;2.05;;;23.90;50.70;;;;;;5047963;28;20021;-65
2021/08/18 09:58:34;;;;;;;3.17;2.13;;;23.80;50.60;;;;;;5048503;28;20025;-65
2021/08/18 10:01:03;;;;;;;3.95;2.40;;;23.90;50.70;;;;;;5047049;28;20028;-65
2021/08/18 10:03:31;;;;;;;3.73;2.40;;;23.90;50.70;;;;;;5049285;28;20049;-65
2021/08/18 10:05:57;;;;;;;3.60;2.40;;;23.90;50.70;;;;;;5053537;28;20021;-65
2021/08/18 10:08:24;;;;;;;4.20;2.80;;;23.90;50.70;;;;;;5061527;28;20446;-65
2021/08/18 10:10:51;;;;;;;3.22;2.30;;;23.80;50.70;;;;;;5046881;28;20637;-63
2021/08/18 10:13:16;;;;;;;3.42;2.60;;;23.80;50.70;;;;;;5041759;28;20095;-66
2021/08/18 10:15:43;;;;;;;3.78;2.22;;;23.80;50.70;;;;;;5038801;28;20469;-66
2021/08/18 10:18:09;;;;;;;3.13;2.47;;;23.90;50.70;;;;;;5037755;28;20108;-65
2021/08/18 10:20:36;;;;;;;3.78;2.45;;;23.90;50.70;;;;;;5041788;28;20458;-65
2021/08/18 10:23:05;;;;;;;3.60;2.55;;;23.90;50.70;;;;;;5034689;28;20441;-65
2021/08/18 10:25:44;;;;;;;3.75;2.60;;;23.90;50.80;;;;;;5044535;28;20027;-66
2021/08/18 10:28:09;;;;;;;3.78;2.80;;;23.90;50.70;;;;;;5036010;28;20548;-65
2021/08/18 10:30:50;;;;;;;3.25;2.50;;;23.90;50.70;;;;;;5035875;28;20033;-65
2021/08/18 10:33:53;;;;;;;3.53;2.67;;;23.90;50.80;;;;;;5042684;28;20032;-64
2021/08/18 10:36:57;;;;;;;3.63;2.55;;;23.90;50.80;;;;;;5039636;28;20055;-65
2021/08/18 10:39:26;;;;;;;3.50;2.55;;;23.90;50.80;;;;;;5039071;28;20457;-63
2021/08/18 10:42:13;;;;;;;3.10;2.30;;;23.90;50.80;;;;;;5038984;28;20186;-65
2021/08/18 10:44:44;;;;;;;3.78;2.63;;;23.90;50.90;;;;;;5037393;28;20025;-66
2021/08/18 10:47:33;;;;;;;4.00;2.53;;;23.90;50.90;;;;;;5037881;28;20462;-65
2021/08/18 10:49:59;;;;;;;3.90;2.78;;;23.90;50.90;;;;;;5035121;28;20041;-65
2021/08/18 10:52:28;;;;;;;3.83;2.67;;;23.90;51.00;;;;;;5037161;28;20036;-65
2021/08/18 10:55:12;;;;;;;3.15;2.30;;;23.90;51.00;;;;;;5036552;28;20040;-65
2021/08/18 10:57:53;;;;;;;3.45;2.40;;;23.90;51.00;;;;;;5037531;28;20029;-66
2021/08/18 11:00:39;;;;;;;3.80;2.78;;;23.90;51.00;;;;;;5041671;28;20127;-65
2021/08/18 11:03:16;;;;;;;4.25;2.63;;;23.90;51.00;;;;;;5039445;28;20033;-65
2021/08/18 11:05:49;;;;;;;4.72;2.33;;;23.90;51.00;;;;;;5033659;28;20044;-65
2021/08/18 11:08:20;;;;;;;3.88;2.50;;;23.90;51.00;;;;;;5039461;28;20084;-63
2021/08/18 11:10:53;;;;;;;3.40;2.55;;;23.90;51.10;;;;;;5052985;28;20537;-65
2021/08/18 11:13:41;;;;;;;3.75;2.40;;;24.00;51.20;;;;;;5039820;28;20037;-65
2021/08/18 11:16:13;;;;;;;3.85;2.67;;;23.90;51.20;;;;;;5034614;28;20136;-66
2021/08/18 11:18:55;;;;;;;3.42;2.63;;;23.90;51.70;;;;;;5040275;28;20589;-65
2021/08/18 11:21:24;;;;;;;3.80;2.65;;;23.90;51.20;;;;;;5034832;28;20036;-65
2021/08/18 11:23:56;;;;;;;3.70;2.60;;;24.00;51.20;;;;;;5038910;28;20025;-65
2021/08/18 11:26:24;;;;;;;3.97;2.40;;;23.90;51.20;;;;;;5037295;28;20029;-65
2021/08/18 11:29:01;;;;;;;3.55;2.40;;;23.90;51.20;;;;;;5038796;28;20033;-65
2021/08/18 11:31:34;;;;;;;3.70;2.35;;;23.90;51.30;;;;;;5043188;28;20416;-66
2021/08/18 11:34:01;;;;;;;2.95;2.33;;;23.90;51.40;;;;;;5036704;28;20021;-65
2021/08/18 11:36:31;;;;;;;3.70;2.70;;;24.00;51.40;;;;;;5034936;28;21110;-65
2021/08/18 11:39:03;;;;;;;3.53;2.58;;;23.90;51.40;;;;;;5037819;28;20040;-65
2021/08/18 11:41:42;;;;;;;3.30;2.50;;;23.90;51.40;;;;;;5048466;28;20413;-63
2021/08/18 11:44:09;;;;;;;3.42;2.50;;;23.90;51.40;;;;;;5037111;28;20464;-65
2021/08/18 11:46:34;;;;;;;3.45;2.20;;;23.90;51.50;;;;;;5039934;28;20788;-62
2021/08/18 11:49:08;;;;;;;3.40;2.60;;;24.00;51.40;;;;;;5033272;28;20112;-64
2021/08/18 11:51:35;;;;;;;3.10;2.30;;;23.90;51.40;;;;;;5032731;28;20032;-64
2021/08/18 11:54:01;;;;;;;3.42;2.58;;;24.00;51.40;;;;;;5036302;28;20485;-65
2021/08/18 11:56:28;;;;;;;3.47;2.63;;;23.90;51.30;;;;;;5034196;28;20029;-64
2021/08/18 11:59:03;;;;;;;3.45;2.42;;;23.90;51.30;;;;;;5039502;28;20124;-65
2021/08/18 12:01:29;;;;;;;3.30;2.30;;;23.90;51.30;;;;;;5033846;28;20033;-64
2021/08/18 12:03:56;;;;;;;3.35;2.33;;;24.00;51.30;;;;;;5034856;28;20037;-63
2021/08/18 12:06:37;;;;;;;3.38;2.38;;;24.00;51.30;;;;;;5033865;28;20040;-63
2021/08/18 12:09:19;;;;;;;3.20;2.40;;;24.00;51.30;;;;;;5037830;28;20022;-64
2021/08/18 12:11:45;;;;;;;2.85;2.05;;;24.00;51.30;;;;;;5036847;28;20874;-66
2021/08/18 12:14:17;;;;;;;2.95;2.30;;;23.90;51.20;;;;;;5043394;28;20017;-66
2021/08/18 12:16:44;;;;;;;3.05;2.22;;;24.00;51.30;;;;;;5038747;28;20103;-66
2021/08/18 12:19:28;;;;;;;3.60;2.20;;;23.90;51.20;;;;;;5037067;28;20032;-65
2021/08/18 12:22:14;;;;;;;3.05;2.15;;;24.00;51.30;;;;;;5051164;28;20172;-66
2021/08/18 12:24:42;;;;;;;2.90;2.22;;;24.00;51.30;;;;;;5031224;28;20025;-65
2021/08/18 12:27:09;;;;;;;3.20;2.35;;;23.90;51.20;;;;;;5033745;28;20140;-65
2021/08/18 12:29:37;;;;;;;3.20;2.25;;;23.90;51.20;;;;;;5032947;28;20124;-66
2021/08/18 12:32:07;;;;;;;3.40;2.40;;;23.90;51.20;;;;;;5034790;28;20028;-67
2021/08/18 12:34:33;;;;;;;3.30;2.33;;;24.00;51.20;;;;;;5037455;28;20154;-66
2021/08/18 12:37:24;;;;;;;3.20;2.35;;;24.00;51.20;;;;;;5036906;28;20037;-66
2021/08/18 12:40:16;;;;;;;2.85;2.15;;;24.00;51.20;;;;;;5035423;28;20544;-65
2021/08/18 12:42:43;;;;;;;3.45;2.70;;;24.00;51.70;;;;;;5031446;28;20132;-63
2021/08/18 12:45:19;;;;;;;3.10;2.05;;;24.00;51.20;;;;;;5030771;28;20065;-65
2021/08/18 12:47:53;;;;;;;3.40;2.45;;;24.00;51.20;;;;;;5033839;28;20832;-62
2021/08/18 12:50:39;;;;;;;3.05;2.20;;;24.00;51.20;;;;;;5033182;28;20120;-65
2021/08/18 12:53:08;;;;;;;3.10;2.28;;;24.00;51.20;;;;;;5030779;28;20020;-65